Time;durP1;ratioP1;P1;durP2;ratioP2;P2;SDS_P1;SDS_P2;PMS_P1;PMS_P2;Temp;Humidity;BMP_temperature;BMP_pressure;BME280_temperature;BME280_humidity;BME280_pressure;Samples;Min_cycle;Max_cycle;Signal;HPM_P1;HPM_P2
2021/01/19 00:00:25;;;;;;;11.43;7.60;;;22.50;42.00;;;;;;5066158;28;45361;-50
2021/01/19 00:02:51;;;;;;;9.25;7.47;;;22.50;42.10;;;;;;5065352;28;45291;-49
2021/01/19 00:05:17;;;;;;;12.07;8.23;;;22.40;42.00;;;;;;5066505;28;45430;-49
2021/01/19 00:07:42;;;;;;;11.02;8.00;;;22.40;42.00;;;;;;5066601;28;45453;-49
2021/01/19 00:10:08;;;;;;;10.70;7.75;;;22.40;42.00;;;;;;5066040;28;45405;-49
2021/01/19 00:12:34;;;;;;;10.13;7.35;;;22.40;42.00;;;;;;5066573;28;45367;-49
2021/01/19 00:15:00;;;;;;;10.20;7.25;;;22.40;42.10;;;;;;5066571;28;45397;-49
2021/01/19 00:17:25;;;;;;;11.70;8.30;;;22.40;42.10;;;;;;5065917;28;45358;-49
2021/01/19 00:19:51;;;;;;;13.00;8.30;;;22.30;42.10;;;;;;5049378;28;45391;-48
2021/01/19 00:22:18;;;;;;;10.25;7.10;;;22.30;42.10;;;;;;5048779;28;45295;-49
2021/01/19 00:24:44;;;;;;;10.15;7.38;;;22.30;42.10;;;;;;5049092;28;45252;-49
2021/01/19 00:27:09;;;;;;;10.43;7.30;;;22.30;42.10;;;;;;5066502;28;45589;-50
2021/01/19 00:29:35;;;;;;;10.98;8.55;;;22.30;42.10;;;;;;5065698;28;45355;-49
2021/01/19 00:32:01;;;;;;;10.10;7.75;;;22.30;42.10;;;;;;5048565;28;45400;-49
2021/01/19 00:34:26;;;;;;;10.88;8.15;;;22.30;42.10;;;;;;5049238;28;45257;-50
2021/01/19 00:36:52;;;;;;;10.25;7.20;;;22.30;42.20;;;;;;5049604;28;45271;-49
2021/01/19 00:39:18;;;;;;;9.52;7.75;;;22.20;42.00;;;;;;5048963;28;46172;-49
2021/01/19 00:41:44;;;;;;;10.70;7.40;;;22.20;42.00;;;;;;5049313;28;45351;-49
2021/01/19 00:44:10;;;;;;;10.52;7.53;;;22.20;42.00;;;;;;5066175;28;45370;-49
2021/01/19 00:46:36;;;;;;;10.55;7.30;;;22.20;42.00;;;;;;5049711;28;45451;-48
2021/01/19 00:49:01;;;;;;;10.40;7.50;;;22.20;42.00;;;;;;5048771;28;45454;-49
2021/01/19 00:51:34;;;;;;;9.18;7.90;;;22.20;42.00;;;;;;5049133;28;45229;-49
2021/01/19 00:54:00;;;;;;;12.02;8.02;;;22.20;42.00;;;;;;5065824;28;45358;-49
2021/01/19 00:56:35;;;;;;;9.13;6.80;;;22.20;42.00;;;;;;5066030;28;45605;-49
2021/01/19 00:59:00;;;;;;;11.80;8.00;;;22.20;42.00;;;;;;5065606;28;45449;-49
2021/01/19 01:01:26;;;;;;;11.05;8.00;;;22.20;42.00;;;;;;5066023;28;45365;-49
2021/01/19 01:03:52;;;;;;;10.23;7.50;;;22.10;42.00;;;;;;5065613;28;45309;-49
2021/01/19 01:06:18;;;;;;;9.95;7.53;;;22.10;42.00;;;;;;5066184;28;45502;-49
2021/01/19 01:08:43;;;;;;;9.68;7.47;;;22.10;42.00;;;;;;5065358;28;46063;-49
2021/01/19 01:11:09;;;;;;;9.15;7.60;;;22.10;42.00;;;;;;5065603;28;45341;-49
2021/01/19 01:13:35;;;;;;;10.85;7.28;;;22.10;42.00;;;;;;5066557;28;45154;-48
2021/01/19 01:16:01;;;;;;;8.02;6.53;;;22.10;42.00;;;;;;5069933;28;45444;-49
2021/01/19 01:18:30;;;;;;;9.82;7.22;;;22.10;42.00;;;;;;5068085;28;45299;-49
2021/01/19 01:20:56;;;;;;;10.68;7.65;;;22.10;42.00;;;;;;5052235;28;45364;-49
2021/01/19 01:23:21;;;;;;;11.93;7.65;;;22.10;42.00;;;;;;5052138;28;45427;-48
2021/01/19 01:25:47;;;;;;;10.23;7.15;;;22.00;42.60;;;;;;5052101;28;45296;-48
2021/01/19 01:28:12;;;;;;;8.40;6.60;;;22.00;42.00;;;;;;5051766;28;46252;-49
2021/01/19 01:30:38;;;;;;;10.95;7.32;;;22.00;42.00;;;;;;5051700;28;45247;-49
2021/01/19 01:33:04;;;;;;;10.48;7.85;;;22.00;42.00;;;;;;5051957;28;45258;-49
2021/01/19 01:35:30;;;;;;;10.55;7.63;;;22.00;42.10;;;;;;5068796;28;45592;-49
2021/01/19 01:37:55;;;;;;;10.57;7.95;;;22.00;42.10;;;;;;5051700;28;45337;-49
2021/01/19 01:40:22;;;;;;;8.60;7.05;;;22.00;42.10;;;;;;5051918;28;45423;-49
2021/01/19 01:42:50;;;;;;;12.05;7.82;;;22.00;42.10;;;;;;5052078;28;45359;-49
2021/01/19 01:45:18;;;;;;;8.85;6.97;;;22.00;42.00;;;;;;5052354;28;45447;-50
2021/01/19 01:47:44;;;;;;;8.35;6.70;;;22.00;42.00;;;;;;5068284;28;45293;-50
2021/01/19 01:50:10;;;;;;;10.18;7.18;;;22.00;41.90;;;;;;5052101;28;45282;-49
2021/01/19 01:52:35;;;;;;;10.40;6.85;;;22.10;41.90;;;;;;5051630;28;45312;-50
2021/01/19 01:55:01;;;;;;;11.20;7.75;;;22.10;41.80;;;;;;5069004;28;45173;-49
2021/01/19 01:57:27;;;;;;;9.25;7.15;;;22.10;41.70;;;;;;5068239;28;46404;-49
2021/01/19 01:59:56;;;;;;;8.82;6.65;;;22.10;41.60;;;;;;5068546;28;45359;-50
2021/01/19 02:02:21;;;;;;;9.73;7.13;;;22.20;41.60;;;;;;5068505;28;45441;-49
2021/01/19 02:04:47;;;;;;;10.43;6.95;;;22.20;41.50;;;;;;5068903;28;45454;-49
2021/01/19 02:07:32;;;;;;;8.98;7.38;;;22.20;41.50;;;;;;5067957;28;45405;-49
2021/01/19 02:10:06;;;;;;;9.15;6.82;;;22.30;41.50;;;;;;5068239;28;45263;-49
2021/01/19 02:12:43;;;;;;;9.70;7.10;;;22.30;41.60;;;;;;5069783;28;45250;-49
2021/01/19 02:15:09;;;;;;;10.23;7.35;;;22.30;41.50;;;;;;5068907;28;45401;-49
2021/01/19 02:17:47;;;;;;;9.02;7.00;;;22.30;41.40;;;;;;5050167;28;47804;-50
2021/01/19 02:20:58;;;;;;;8.50;6.68;;;22.30;41.40;;;;;;5068048;28;45543;-49
2021/01/19 02:23:43;;;;;;;9.82;7.50;;;22.30;41.30;;;;;;5026180;28;45510;-48
2021/01/19 02:26:18;;;;;;;9.67;6.87;;;22.40;41.30;;;;;;5061717;28;45172;-48
2021/01/19 02:28:54;;;;;;;8.70;7.00;;;22.40;41.30;;;;;;5068824;28;45937;-50
2021/01/19 02:31:43;;;;;;;9.27;7.10;;;22.40;41.30;;;;;;5068012;28;45282;-49
2021/01/19 02:34:24;;;;;;;9.20;6.82;;;22.50;41.30;;;;;;5053673;28;45496;-51
2021/01/19 02:37:05;;;;;;;9.73;7.50;;;22.40;41.20;;;;;;5067994;28;45191;-50
2021/01/19 02:39:54;;;;;;;8.73;6.65;;;22.50;41.10;;;;;;5068987;28;46395;-49
2021/01/19 02:42:24;;;;;;;9.57;6.55;;;22.50;41.00;;;;;;5054718;28;45286;-49
2021/01/19 02:44:50;;;;;;;8.32;6.68;;;22.50;41.10;;;;;;5067767;28;45472;-48
2021/01/19 02:47:16;;;;;;;9.73;6.55;;;22.50;41.00;;;;;;5051443;28;45565;-48
2021/01/19 02:49:42;;;;;;;9.70;6.82;;;22.50;41.00;;;;;;5050498;28;45336;-50
2021/01/19 02:52:08;;;;;;;10.80;7.40;;;22.50;41.00;;;;;;5050704;28;45244;-49
2021/01/19 02:54:34;;;;;;;10.00;7.40;;;22.50;40.90;;;;;;5067710;28;45212;-49
2021/01/19 02:57:09;;;;;;;10.32;7.65;;;22.40;40.80;;;;;;5067521;28;45557;-49
2021/01/19 02:59:54;;;;;;;8.25;6.40;;;22.40;40.80;;;;;;5068916;28;45314;-50
2021/01/19 03:02:20;;;;;;;8.90;7.10;;;22.40;40.70;;;;;;5068874;28;45279;-49
2021/01/19 03:04:47;;;;;;;8.63;6.93;;;22.40;40.80;;;;;;5067467;28;45406;-49
2021/01/19 03:07:13;;;;;;;8.52;6.55;;;22.50;40.80;;;;;;5067466;28;45303;-50
2021/01/19 03:09:39;;;;;;;9.38;7.05;;;22.50;40.80;;;;;;5050451;28;45373;-50
2021/01/19 03:12:23;;;;;;;9.23;6.90;;;22.50;40.80;;;;;;5049984;28;45341;-50
2021/01/19 03:14:49;;;;;;;8.73;6.78;;;22.50;40.80;;;;;;5031590;28;45340;-50
2021/01/19 03:17:15;;;;;;;8.13;6.38;;;22.50;40.70;;;;;;5028602;28;45579;-50
2021/01/19 03:19:41;;;;;;;8.93;6.75;;;22.60;40.80;;;;;;5028711;28;45394;-50
2021/01/19 03:22:07;;;;;;;9.93;7.43;;;22.60;40.80;;;;;;5016600;28;45452;-50
2021/01/19 03:24:33;;;;;;;8.90;6.97;;;22.60;40.70;;;;;;5011255;28;45296;-50
2021/01/19 03:26:59;;;;;;;8.68;7.20;;;22.60;41.30;;;;;;5009708;28;45401;-50
2021/01/19 03:29:24;;;;;;;9.75;7.07;;;22.60;40.70;;;;;;5008705;28;45395;-49
2021/01/19 03:31:50;;;;;;;9.02;6.80;;;22.70;40.70;;;;;;5009176;28;45651;-49
2021/01/19 03:34:16;;;;;;;9.40;7.38;;;22.70;40.60;;;;;;5001420;28;45494;-50
2021/01/19 03:36:42;;;;;;;10.57;7.20;;;22.80;40.60;;;;;;5009174;28;45175;-49
2021/01/19 03:39:07;;;;;;;8.05;6.68;;;22.80;40.60;;;;;;5009391;28;46216;-50
2021/01/19 03:41:33;;;;;;;8.50;7.05;;;22.80;40.60;;;;;;5008712;28;45356;-49
2021/01/19 03:43:59;;;;;;;9.15;6.85;;;22.90;40.60;;;;;;5008732;28;45447;-50
2021/01/19 03:46:25;;;;;;;10.15;6.85;;;22.90;40.50;;;;;;5036434;28;45295;-50
2021/01/19 03:48:51;;;;;;;11.02;6.80;;;22.90;40.50;;;;;;5029706;28;45305;-51
2021/01/19 03:51:16;;;;;;;10.40;6.68;;;23.00;40.50;;;;;;5030149;28;45427;-51
2021/01/19 03:53:42;;;;;;;9.52;6.55;;;23.00;40.50;;;;;;5045767;28;45206;-50
2021/01/19 03:56:08;;;;;;;9.45;6.35;;;23.00;40.50;;;;;;5067212;28;45309;-50
2021/01/19 03:58:33;;;;;;;7.68;6.03;;;23.00;40.40;;;;;;5066627;28;45499;-50
2021/01/19 04:00:59;;;;;;;9.55;6.78;;;23.10;40.40;;;;;;5066166;28;45229;-50
2021/01/19 04:03:25;;;;;;;8.93;6.72;;;23.10;40.40;;;;;;5066871;28;45357;-50
2021/01/19 04:05:50;;;;;;;8.00;6.28;;;23.10;40.40;;;;;;5067021;28;45256;-50
2021/01/19 04:08:16;;;;;;;7.90;6.65;;;23.20;40.30;;;;;;5066062;28;46304;-51
2021/01/19 04:10:48;;;;;;;9.38;6.97;;;23.20;40.30;;;;;;5066414;28;45665;-50
2021/01/19 04:13:16;;;;;;;7.40;6.00;;;23.20;40.30;;;;;;5066522;28;45232;-50
2021/01/19 04:15:42;;;;;;;7.75;6.05;;;23.20;40.30;;;;;;5068278;28;45211;-50
2021/01/19 04:18:08;;;;;;;8.18;6.25;;;23.30;40.30;;;;;;5065242;28;45363;-50
2021/01/19 04:20:33;;;;;;;7.43;5.95;;;23.30;40.30;;;;;;5048938;28;45455;-50
2021/01/19 04:22:59;;;;;;;7.70;5.88;;;23.30;40.20;;;;;;5049610;28;45293;-50
2021/01/19 04:25:25;;;;;;;7.07;5.75;;;23.30;40.20;;;;;;5049230;28;45335;-50
2021/01/19 04:27:51;;;;;;;9.45;6.30;;;23.30;40.10;;;;;;5049115;28;45414;-49
2021/01/19 04:30:17;;;;;;;8.73;5.78;;;23.30;40.10;;;;;;5039299;28;45312;-49
2021/01/19 04:32:45;;;;;;;7.30;6.10;;;23.30;40.10;;;;;;5059635;28;45422;-50
2021/01/19 04:35:11;;;;;;;8.43;6.45;;;23.30;40.10;;;;;;5040410;28;46390;-50
2021/01/19 04:37:36;;;;;;;8.75;6.68;;;23.30;40.10;;;;;;5065755;28;46085;-50
2021/01/19 04:40:04;;;;;;;8.20;6.20;;;23.30;40.00;;;;;;5049162;28;45501;-50
2021/01/19 04:42:32;;;;;;;8.13;6.43;;;23.30;40.00;;;;;;5043058;28;45309;-50
2021/01/19 04:44:58;;;;;;;8.77;6.05;;;23.30;40.00;;;;;;5066572;28;45322;-50
2021/01/19 04:47:23;;;;;;;7.95;6.30;;;23.30;40.00;;;;;;5048872;28;46198;-49
2021/01/19 04:49:49;;;;;;;7.70;5.70;;;23.40;39.90;;;;;;5051321;28;45408;-49
2021/01/19 04:52:15;;;;;;;8.43;5.88;;;23.40;39.80;;;;;;5062121;28;45428;-49
2021/01/19 04:55:15;;;;;;;7.00;5.68;;;23.40;39.80;;;;;;5069992;28;45256;-50
2021/01/19 04:57:41;;;;;;;7.43;5.60;;;23.40;39.80;;;;;;5069818;28;45302;-49
2021/01/19 05:00:10;;;;;;;8.50;6.38;;;23.40;39.80;;;;;;5067157;28;45437;-50
2021/01/19 05:02:56;;;;;;;8.05;6.05;;;23.50;39.90;;;;;;5069315;28;45246;-49
2021/01/19 05:05:33;;;;;;;8.40;6.30;;;23.50;39.90;;;;;;5070685;28;45523;-51
2021/01/19 05:08:02;;;;;;;8.32;6.47;;;23.50;40.50;;;;;;5068460;28;45249;-50
2021/01/19 05:10:36;;;;;;;8.13;5.95;;;23.50;39.90;;;;;;5060961;28;45431;-49
2021/01/19 05:13:12;;;;;;;7.95;5.55;;;23.50;39.90;;;;;;5065171;28;45249;-49
2021/01/19 05:15:46;;;;;;;8.18;6.00;;;23.50;39.90;;;;;;5096040;27;46060;-49
2021/01/19 05:18:12;;;;;;;7.57;6.13;;;23.50;39.90;;;;;;5067146;28;46113;-50
2021/01/19 05:20:51;;;;;;;8.80;6.45;;;23.50;39.90;;;;;;5051484;28;45439;-50
2021/01/19 05:23:23;;;;;;;8.15;5.63;;;23.60;39.90;;;;;;5052528;28;45305;-48
2021/01/19 05:25:53;;;;;;;7.75;5.65;;;23.60;39.90;;;;;;5067914;28;45471;-49
2021/01/19 05:28:20;;;;;;;8.68;5.70;;;23.60;39.90;;;;;;5067152;28;46056;-49
2021/01/19 05:30:52;;;;;;;7.65;5.85;;;23.60;39.90;;;;;;5066928;28;45375;-50
2021/01/19 05:33:17;;;;;;;9.25;5.68;;;23.60;39.90;;;;;;5066836;28;45489;-49
2021/01/19 05:35:43;;;;;;;7.25;5.32;;;23.60;39.90;;;;;;5067402;28;45365;-49
2021/01/19 05:38:09;;;;;;;7.70;5.55;;;23.70;39.90;;;;;;5066526;28;46074;-49
2021/01/19 05:40:42;;;;;;;8.55;5.85;;;23.70;39.90;;;;;;5067331;28;45296;-50
2021/01/19 05:43:11;;;;;;;6.95;5.10;;;23.70;39.80;;;;;;5067648;28;45604;-49
2021/01/19 05:45:37;;;;;;;9.25;5.68;;;23.70;39.80;;;;;;5066657;28;45590;-49
2021/01/19 05:48:21;;;;;;;8.00;5.90;;;23.70;39.80;;;;;;5066430;28;45564;-50
2021/01/19 05:50:48;;;;;;;7.13;5.18;;;23.80;39.80;;;;;;5066805;28;45324;-49
2021/01/19 05:53:13;;;;;;;7.55;5.78;;;23.80;39.80;;;;;;5064147;28;45338;-50
2021/01/19 05:55:41;;;;;;;7.18;5.57;;;23.80;39.90;;;;;;5067669;28;45575;-49
2021/01/19 05:58:14;;;;;;;7.57;6.00;;;23.80;39.80;;;;;;5065948;28;46108;-49
2021/01/19 06:00:41;;;;;;;6.68;5.32;;;23.90;39.80;;;;;;5065081;28;45510;-49
2021/01/19 06:03:16;;;;;;;7.70;5.82;;;23.80;39.80;;;;;;5066993;28;45426;-50
2021/01/19 06:05:43;;;;;;;7.40;5.30;;;23.90;39.80;;;;;;5049505;28;45340;-50
2021/01/19 06:08:09;;;;;;;7.22;5.57;;;23.90;39.80;;;;;;5066394;28;45350;-49
2021/01/19 06:10:36;;;;;;;7.55;6.15;;;23.90;39.80;;;;;;5063850;28;45284;-50
2021/01/19 06:13:01;;;;;;;7.93;6.00;;;23.90;39.80;;;;;;5049930;28;45751;-50
2021/01/19 06:15:28;;;;;;;7.40;5.53;;;23.90;39.70;;;;;;5067184;28;45494;-49
2021/01/19 06:17:53;;;;;;;7.72;5.90;;;23.90;39.70;;;;;;5063728;28;45481;-50
2021/01/19 06:20:19;;;;;;;7.50;5.97;;;23.90;39.70;;;;;;5066397;28;45437;-50
2021/01/19 06:22:45;;;;;;;7.70;5.75;;;23.90;39.70;;;;;;5066604;28;45282;-49
2021/01/19 06:25:14;;;;;;;7.65;5.20;;;23.90;39.80;;;;;;5067035;28;45608;-49
2021/01/19 06:27:39;;;;;;;8.02;5.25;;;23.90;39.90;;;;;;5066271;28;45398;-50
2021/01/19 06:30:12;;;;;;;6.43;5.25;;;24.00;39.90;;;;;;5066410;28;45365;-50
2021/01/19 06:32:43;;;;;;;6.68;5.07;;;24.00;39.80;;;;;;5067582;28;45447;-50
2021/01/19 06:35:12;;;;;;;8.43;5.35;;;24.00;39.80;;;;;;5065414;28;45735;-49
2021/01/19 06:37:38;;;;;;;8.85;5.60;;;24.00;39.80;;;;;;5067056;28;45330;-50
2021/01/19 06:40:09;;;;;;;8.45;5.20;;;24.00;40.40;;;;;;5066628;28;45358;-49
2021/01/19 06:42:35;;;;;;;6.93;5.40;;;24.00;39.80;;;;;;5067748;28;45348;-50
2021/01/19 06:45:05;;;;;;;9.93;6.05;;;24.00;39.80;;;;;;5051407;28;45353;-51
2021/01/19 06:47:34;;;;;;;8.85;5.78;;;24.00;39.90;;;;;;5067704;28;45456;-49
2021/01/19 06:49:59;;;;;;;11.57;6.15;;;24.00;40.00;;;;;;5063467;28;45445;-49
2021/01/19 06:52:25;;;;;;;10.07;5.80;;;24.00;40.10;;;;;;5044469;28;45517;-50
2021/01/19 06:54:54;;;;;;;11.73;6.13;;;24.00;40.10;;;;;;5047463;28;45741;-50
2021/01/19 06:57:32;;;;;;;16.10;6.25;;;24.00;40.30;;;;;;5065561;28;45704;-51
2021/01/19 07:00:09;;;;;;;11.35;6.75;;;24.00;40.50;;;;;;5062461;28;45227;-50
2021/01/19 07:02:37;;;;;;;11.55;6.40;;;23.90;40.90;;;;;;5068855;28;45257;-50
2021/01/19 07:05:10;;;;;;;7.30;5.82;;;24.00;40.80;;;;;;5058815;28;45397;-49
2021/01/19 07:07:43;;;;;;;13.57;7.00;;;24.00;40.90;;;;;;5063667;28;46028;-50
2021/01/19 07:10:13;;;;;;;12.43;7.55;;;23.90;40.90;;;;;;5066128;28;45715;-51
2021/01/19 07:13:02;;;;;;;12.23;6.72;;;24.00;41.10;;;;;;5048441;28;45696;-51
2021/01/19 07:16:06;;;;;;;10.13;7.38;;;23.90;41.40;;;;;;5069025;28;45266;-50
2021/01/19 07:18:50;;;;;;;15.00;6.57;;;23.90;41.50;;;;;;5042909;28;45373;-50
2021/01/19 07:21:19;;;;;;;10.95;7.75;;;23.90;41.80;;;;;;5068015;28;45301;-54
2021/01/19 07:23:47;;;;;;;11.75;6.60;;;23.80;41.90;;;;;;5054795;28;45478;-53
2021/01/19 07:26:19;;;;;;;14.23;7.00;;;23.90;41.70;;;;;;5068496;28;45571;-53
2021/01/19 07:28:45;;;;;;;16.02;8.05;;;24.00;41.80;;;;;;5100412;27;46598;-53
2021/01/19 07:31:11;;;;;;;11.27;6.97;;;24.00;41.70;;;;;;5050211;28;45254;-52
2021/01/19 07:33:41;;;;;;;14.27;7.05;;;24.10;41.70;;;;;;5066866;28;45512;-53
2021/01/19 07:36:12;;;;;;;15.60;8.05;;;24.10;41.70;;;;;;5077534;28;45344;-51
2021/01/19 07:38:38;;;;;;;15.80;7.63;;;24.20;41.70;;;;;;5064217;28;46346;-53
2021/01/19 07:41:03;;;;;;;10.70;6.47;;;24.20;42.20;;;;;;5069540;28;45448;-52
2021/01/19 07:43:31;;;;;;;17.05;6.72;;;24.20;42.20;;;;;;5071839;27;45740;-52
2021/01/19 07:45:57;;;;;;;9.23;7.07;;;24.30;42.40;;;;;;5047509;28;45548;-51
2021/01/19 07:48:36;;;;;;;14.60;6.70;;;24.30;42.10;;;;;;5045372;28;45256;-51
2021/01/19 07:51:17;;;;;;;11.38;7.05;;;24.40;41.90;;;;;;5063056;28;45348;-53
2021/01/19 07:53:50;;;;;;;11.70;7.00;;;24.40;42.00;;;;;;5066102;28;45736;-53
2021/01/19 07:56:23;;;;;;;17.05;7.32;;;24.50;42.00;;;;;;5067045;28;45743;-52
2021/01/19 07:58:49;;;;;;;10.65;6.88;;;24.50;41.90;;;;;;5048518;28;45956;-52
2021/01/19 08:01:31;;;;;;;11.43;7.15;;;24.50;41.70;;;;;;5038745;28;45475;-55
2021/01/19 08:04:08;;;;;;;9.88;6.40;;;24.60;42.00;;;;;;5066185;28;45326;-59
2021/01/19 08:06:34;;;;;;;16.48;8.15;;;24.60;41.90;;;;;;5066630;28;45736;-52
2021/01/19 08:09:16;;;;;;;9.95;6.80;;;24.60;42.00;;;;;;5049213;28;46343;-53
2021/01/19 08:11:42;;;;;;;12.88;6.40;;;24.70;41.80;;;;;;5047092;28;45363;-55
2021/01/19 08:14:08;;;;;;;14.20;7.40;;;24.70;41.70;;;;;;5045546;28;45394;-54
2021/01/19 08:16:37;;;;;;;10.88;6.55;;;24.70;41.50;;;;;;5029642;28;45511;-53
2021/01/19 08:19:10;;;;;;;12.55;6.25;;;24.70;41.40;;;;;;5046198;28;46303;-55
2021/01/19 08:21:56;;;;;;;10.98;6.75;;;24.70;41.30;;;;;;5049261;28;45436;-55
2021/01/19 08:24:23;;;;;;;11.80;7.10;;;24.80;41.20;;;;;;5068162;28;45385;-55
2021/01/19 08:26:49;;;;;;;9.68;6.10;;;24.80;41.20;;;;;;5037594;28;45267;-56
2021/01/19 08:29:17;;;;;;;9.35;6.40;;;24.80;41.10;;;;;;5033757;28;45392;-54
2021/01/19 08:31:43;;;;;;;10.45;8.30;;;24.90;41.10;;;;;;5061731;28;45416;-54
2021/01/19 08:34:09;;;;;;;13.07;9.05;;;24.80;40.20;;;;;;5032324;28;45343;-56
2021/01/19 08:36:35;;;;;;;13.73;9.30;;;24.80;39.30;;;;;;5032179;28;45460;-54
2021/01/19 08:39:05;;;;;;;12.48;9.57;;;24.80;38.70;;;;;;5032162;28;45368;-55
2021/01/19 08:41:31;;;;;;;15.55;10.90;;;24.80;38.00;;;;;;5050404;28;45173;-54
2021/01/19 08:43:58;;;;;;;14.32;11.15;;;24.70;37.20;;;;;;5050591;28;45358;-56
2021/01/19 08:46:25;;;;;;;17.33;10.93;;;24.70;36.80;;;;;;5059730;28;45312;-57
2021/01/19 08:48:50;;;;;;;12.70;10.18;;;24.70;36.40;;;;;;5042240;28;45372;-58
2021/01/19 08:51:25;;;;;;;13.80;11.00;;;24.70;36.00;;;;;;5049078;28;45325;-56
2021/01/19 08:53:52;;;;;;;13.48;11.25;;;24.70;34.80;;;;;;5049230;28;45487;-56
2021/01/19 08:56:19;;;;;;;14.70;11.18;;;24.60;33.90;;;;;;5069743;28;45518;-58
2021/01/19 08:58:44;;;;;;;12.95;9.82;;;24.60;33.30;;;;;;5066420;28;46480;-57
2021/01/19 09:01:10;;;;;;;15.60;11.43;;;24.50;33.20;;;;;;5051726;28;45305;-56
2021/01/19 09:03:36;;;;;;;15.45;11.25;;;24.40;32.40;;;;;;5052266;28;45228;-57
2021/01/19 09:06:03;;;;;;;15.05;11.02;;;24.30;32.30;;;;;;5047635;28;45322;-56
2021/01/19 09:08:28;;;;;;;13.20;10.20;;;24.20;32.70;;;;;;5052353;28;45384;-59
2021/01/19 09:11:08;;;;;;;16.92;11.90;;;24.10;33.20;;;;;;5069079;28;45325;-55
2021/01/19 09:13:41;;;;;;;15.13;11.45;;;24.10;32.10;;;;;;5052170;28;45471;-55
2021/01/19 09:16:07;;;;;;;16.33;11.32;;;24.00;32.20;;;;;;5066738;28;45483;-55
2021/01/19 09:18:33;;;;;;;17.02;13.02;;;24.00;32.90;;;;;;5067106;28;46089;-56
2021/01/19 09:21:10;;;;;;;16.75;12.45;;;24.00;32.10;;;;;;5046886;28;45344;-56
2021/01/19 09:23:36;;;;;;;16.73;12.52;;;23.90;31.70;;;;;;5066405;28;45497;-56
2021/01/19 09:26:07;;;;;;;14.75;11.02;;;23.90;32.20;;;;;;5052172;28;45217;-55
2021/01/19 09:28:36;;;;;;;13.35;10.70;;;23.90;32.30;;;;;;5034155;28;46108;-55
2021/01/19 09:31:12;;;;;;;13.65;10.23;;;23.90;33.40;;;;;;5048262;28;45309;-55
2021/01/19 09:33:39;;;;;;;13.38;9.60;;;23.90;33.80;;;;;;5049164;28;45742;-56
2021/01/19 09:36:08;;;;;;;10.35;8.55;;;23.90;34.40;;;;;;5051647;28;45444;-55
2021/01/19 09:38:35;;;;;;;12.93;9.60;;;23.90;34.50;;;;;;5067811;28;46358;-55
2021/01/19 09:41:01;;;;;;;12.32;9.82;;;24.00;34.60;;;;;;5031018;28;45376;-55
2021/01/19 09:43:27;;;;;;;13.90;9.52;;;23.90;34.30;;;;;;5047985;28;45726;-55
2021/01/19 09:45:57;;;;;;;17.50;10.63;;;24.00;34.50;;;;;;5030824;28;45506;-55
2021/01/19 09:48:23;;;;;;;17.48;10.13;;;23.90;33.70;;;;;;5030658;28;46286;-55
2021/01/19 09:50:48;;;;;;;20.45;11.57;;;23.90;34.10;;;;;;5033909;28;45334;-54
2021/01/19 09:53:25;;;;;;;17.67;11.43;;;23.90;35.70;;;;;;5059631;28;45359;-55
2021/01/19 09:55:50;;;;;;;19.58;13.38;;;23.90;36.20;;;;;;5066185;28;45577;-55
2021/01/19 09:58:20;;;;;;;21.25;12.63;;;23.80;35.60;;;;;;5030321;28;45303;-55
2021/01/19 10:00:45;;;;;;;17.13;11.95;;;23.70;33.90;;;;;;5029922;28;45351;-54
2021/01/19 10:03:27;;;;;;;18.63;11.95;;;23.70;33.60;;;;;;5037094;28;45785;-56
2021/01/19 10:06:08;;;;;;;17.02;11.65;;;23.60;33.90;;;;;;5067635;28;45389;-55
2021/01/19 10:08:37;;;;;;;14.38;9.25;;;23.60;34.10;;;;;;5067109;28;46010;-51
2021/01/19 10:11:02;;;;;;;18.08;9.55;;;23.60;35.60;;;;;;5067501;28;45429;-54
2021/01/19 10:13:30;;;;;;;20.05;11.25;;;23.70;36.00;;;;;;5056394;28;45378;-55
2021/01/19 10:16:05;;;;;;;16.15;10.02;;;23.70;36.10;;;;;;5031351;28;45363;-55
2021/01/19 10:18:31;;;;;;;15.77;9.65;;;23.70;36.60;;;;;;5047894;28;46590;-55
2021/01/19 10:20:57;;;;;;;17.17;9.93;;;23.70;36.80;;;;;;5051684;28;45335;-55
2021/01/19 10:23:30;;;;;;;16.75;9.73;;;23.70;37.10;;;;;;5067500;28;45470;-56
2021/01/19 10:26:09;;;;;;;15.10;9.25;;;23.70;37.80;;;;;;5067692;28;45509;-53
2021/01/19 10:28:42;;;;;;;14.15;8.77;;;23.80;37.70;;;;;;5045054;28;45369;-53
2021/01/19 10:31:22;;;;;;;14.30;9.27;;;23.80;37.70;;;;;;5053871;28;45449;-53
2021/01/19 10:34:02;;;;;;;15.77;8.75;;;23.90;38.40;;;;;;5030769;28;45628;-54
2021/01/19 10:36:31;;;;;;;13.82;8.73;;;23.90;38.90;;;;;;5047806;28;45435;-56
2021/01/19 10:39:07;;;;;;;14.38;7.75;;;23.80;39.10;;;;;;5047151;28;45281;-57
2021/01/19 10:41:33;;;;;;;13.27;8.05;;;23.70;40.00;;;;;;5056700;28;45341;-57
2021/01/19 10:43:59;;;;;;;16.20;8.50;;;23.60;39.70;;;;;;5067457;28;45379;-58
2021/01/19 10:46:28;;;;;;;14.40;8.30;;;23.60;39.90;;;;;;5066875;28;45316;-57
2021/01/19 10:49:07;;;;;;;13.75;7.57;;;23.50;40.30;;;;;;5031765;28;46132;-56
2021/01/19 10:51:33;;;;;;;13.65;8.68;;;23.50;40.50;;;;;;5047146;28;45324;-58
2021/01/19 10:54:06;;;;;;;15.07;8.57;;;23.40;40.50;;;;;;5048815;28;45354;-55
2021/01/19 10:56:31;;;;;;;13.82;8.07;;;23.50;40.50;;;;;;5067680;28;45465;-52
2021/01/19 10:58:57;;;;;;;16.75;8.43;;;23.60;40.20;;;;;;5067010;28;45352;-55
2021/01/19 11:01:25;;;;;;;12.52;7.97;;;23.60;40.50;;;;;;5067006;28;45366;-53
2021/01/19 11:03:51;;;;;;;15.32;8.07;;;23.70;40.70;;;;;;5066743;28;45380;-53
2021/01/19 11:06:17;;;;;;;11.38;7.68;;;23.70;40.80;;;;;;5040573;28;45595;-55
2021/01/19 11:08:43;;;;;;;11.82;7.63;;;23.70;41.00;;;;;;5050269;28;46157;-56
2021/01/19 11:11:12;;;;;;;12.23;8.02;;;23.60;40.90;;;;;;5046625;28;45293;-56
2021/01/19 11:13:38;;;;;;;12.55;7.43;;;23.50;41.30;;;;;;5046934;28;45279;-55
2021/01/19 11:16:04;;;;;;;9.93;7.07;;;23.50;41.30;;;;;;5047381;28;45343;-54
2021/01/19 11:18:30;;;;;;;9.88;6.75;;;23.50;41.30;;;;;;5035279;28;47537;-55
2021/01/19 11:20:56;;;;;;;9.93;7.10;;;23.50;41.20;;;;;;5064773;28;45447;-55
2021/01/19 11:23:21;;;;;;;9.60;7.00;;;23.40;41.10;;;;;;5047096;28;45371;-61
2021/01/19 11:25:47;;;;;;;11.50;6.97;;;23.40;41.00;;;;;;5030650;28;45625;-57
2021/01/19 11:28:13;;;;;;;12.90;7.03;;;23.40;41.10;;;;;;5029631;28;45458;-59
2021/01/19 11:30:40;;;;;;;11.35;7.60;;;23.40;41.00;;;;;;5029432;28;45292;-58
2021/01/19 11:33:05;;;;;;;11.10;7.47;;;23.40;40.90;;;;;;5052720;28;45895;-56
2021/01/19 11:35:35;;;;;;;13.05;7.20;;;23.40;40.90;;;;;;5081140;27;45480;-54
2021/01/19 11:38:02;;;;;;;11.98;6.50;;;23.40;40.90;;;;;;5063016;28;46449;-56
2021/01/19 11:40:27;;;;;;;16.17;7.55;;;23.30;41.30;;;;;;5045296;28;45380;-55
2021/01/19 11:42:53;;;;;;;11.02;6.85;;;23.20;41.00;;;;;;5049916;28;45259;-55
2021/01/19 11:45:19;;;;;;;12.82;6.95;;;23.20;41.40;;;;;;5048647;28;45558;-57
2021/01/19 11:47:45;;;;;;;10.70;6.78;;;23.20;41.70;;;;;;5041207;28;45540;-56
2021/01/19 11:50:11;;;;;;;11.45;7.32;;;23.20;41.30;;;;;;5033126;28;45277;-57
2021/01/19 11:52:36;;;;;;;21.23;7.63;;;23.20;41.20;;;;;;5049758;28;45340;-54
2021/01/19 11:55:03;;;;;;;12.32;7.43;;;23.20;41.30;;;;;;5063885;28;45580;-58
2021/01/19 11:57:29;;;;;;;11.00;7.45;;;23.20;41.30;;;;;;5045710;28;46084;-53
2021/01/19 11:59:55;;;;;;;11.32;7.05;;;23.20;41.30;;;;;;5065992;28;45432;-54
2021/01/19 12:02:20;;;;;;;10.95;7.00;;;23.20;41.40;;;;;;5045923;28;45546;-55
2021/01/19 12:04:46;;;;;;;9.88;7.07;;;23.20;41.40;;;;;;5048097;28;45626;-54
2021/01/19 12:07:12;;;;;;;11.60;6.75;;;23.10;41.40;;;;;;5067466;28;46225;-54
2021/01/19 12:09:37;;;;;;;12.73;8.15;;;23.10;41.40;;;;;;5048995;28;45294;-55
2021/01/19 12:12:04;;;;;;;13.90;7.10;;;23.10;41.40;;;;;;5049515;28;45347;-54
2021/01/19 12:14:30;;;;;;;9.55;6.22;;;23.10;41.50;;;;;;5066939;28;45346;-57
2021/01/19 12:16:59;;;;;;;9.02;6.72;;;23.10;41.50;;;;;;5049300;28;46440;-56
2021/01/19 12:19:25;;;;;;;13.32;7.85;;;23.10;41.40;;;;;;5044207;28;45469;-54
2021/01/19 12:21:54;;;;;;;9.05;6.15;;;23.10;41.50;;;;;;5036447;28;45404;-55
2021/01/19 12:24:22;;;;;;;10.45;6.57;;;23.10;41.50;;;;;;5066035;28;45282;-55
2021/01/19 12:26:48;;;;;;;11.20;7.10;;;23.10;41.50;;;;;;5062539;28;45382;-57
2021/01/19 12:29:14;;;;;;;11.70;7.18;;;23.10;41.60;;;;;;5046342;28;45335;-53
2021/01/19 12:31:40;;;;;;;11.02;7.72;;;23.00;42.10;;;;;;5065877;28;45280;-54
2021/01/19 12:34:05;;;;;;;9.52;6.63;;;23.00;42.20;;;;;;5032958;28;45557;-53
2021/01/19 12:36:31;;;;;;;10.27;7.63;;;23.00;42.30;;;;;;5048705;28;46167;-52
2021/01/19 12:39:01;;;;;;;13.95;7.38;;;22.90;42.30;;;;;;5048331;28;45610;-54
2021/01/19 12:41:28;;;;;;;12.20;7.38;;;23.00;42.50;;;;;;5064698;28;45512;-53
2021/01/19 12:43:53;;;;;;;11.15;7.70;;;22.90;42.40;;;;;;5044780;28;45403;-53
2021/01/19 12:46:20;;;;;;;9.10;6.85;;;23.00;42.50;;;;;;5051350;28;46426;-53
2021/01/19 12:48:45;;;;;;;11.18;7.63;;;22.90;42.50;;;;;;5065673;28;45391;-54